Time,TemperatureF,DewpointF,PressureIn,WindDirection,WindDirectionDegrees,WindSpeedMPH,WindSpeedGustMPH,Humidity,HourlyPrecipIn,Conditions,Clouds,dailyrainin,SolarRadiationWatts/m^2,SoftwareType,DateUTC
2013-07-05 00:00:00,60.0,44.0,-100.00,ENE,74,1.0,2.0,54,-99.99,,,0.00,0.000000,,2013-07-05 07:00:00,
2013-07-05 00:43:00,60.0,44.0,-100.00,ENE,74,1.0,2.0,54,-99.99,,,0.00,0.000000,,2013-07-05 07:43:00,
2013-07-05 00:53:00,60.0,44.0,-100.00,ENE,74,1.0,2.0,54,-99.99,,,0.00,0.000000,,2013-07-05 07:53:00,
2013-07-05 01:00:00,55.0,44.0,-100.00,WSW,254,1.0,2.0,66,-99.99,,,0.00,0.000000,,2013-07-05 08:00:00,
2013-07-05 01:43:00,55.0,44.0,-100.00,WSW,254,1.0,2.0,66,-99.99,,,0.00,0.000000,,2013-07-05 08:43:00,
2013-07-05 01:56:00,55.0,44.0,-100.00,WSW,254,1.0,2.0,66,-99.99,,,0.00,0.000000,,2013-07-05 08:56:00,
2013-07-05 02:45:00,52.0,43.0,-100.00,WNW,291,0.0,2.0,72,-99.99,,,0.00,0.000000,,2013-07-05 09:45:00,
2013-07-05 02:55:00,52.0,43.0,-100.00,WNW,291,0.0,2.0,72,-99.99,,,0.00,0.000000,,2013-07-05 09:55:00,
2013-07-05 03:00:00,51.0,43.0,-100.00,West,278,1.0,3.0,74,-99.99,,,0.00,0.000000,,2013-07-05 10:00:00,
2013-07-05 03:46:00,51.0,43.0,-100.00,West,278,1.0,3.0,74,-99.99,,,0.00,0.000000,,2013-07-05 10:46:00,
2013-07-05 03:57:00,51.0,43.0,-100.00,West,278,1.0,3.0,74,-99.99,,,0.00,0.000000,,2013-07-05 10:57:00,
2013-07-05 04:00:00,50.0,44.0,-100.00,ESE,111,0.0,3.0,80,-99.99,,,0.00,0.000000,,2013-07-05 11:00:00,
2013-07-05 04:45:00,50.0,44.0,-100.00,ESE,111,0.0,3.0,80,-99.99,,,0.00,0.000000,,2013-07-05 11:45:00,
2013-07-05 04:59:00,50.0,44.0,-100.00,ESE,111,0.0,3.0,80,-99.99,,,0.00,0.000000,,2013-07-05 11:59:00,
2013-07-05 05:45:00,51.0,45.0,-100.00,WSW,238,0.0,2.0,78,-99.99,,,0.00,0.000000,,2013-07-05 12:45:00,
2013-07-05 05:59:00,51.0,45.0,-100.00,WSW,238,0.0,2.0,78,-99.99,,,0.00,0.000000,,2013-07-05 12:59:00,
2013-07-05 06:00:00,51.0,45.0,-100.00,WSW,237,1.0,5.0,79,-99.99,,,0.00,16.969999,,2013-07-05 13:00:00,
2013-07-05 06:57:00,51.0,45.0,-100.00,WSW,237,1.0,5.0,79,-99.99,,,0.00,16.969999,,2013-07-05 13:57:00,
2013-07-05 07:45:00,55.0,46.0,-100.00,WNW,282,1.0,3.0,72,-99.99,,,0.00,193.509995,,2013-07-05 14:45:00,
2013-07-05 07:56:00,55.0,46.0,-100.00,WNW,282,1.0,3.0,72,-99.99,,,0.00,193.509995,,2013-07-05 14:56:00,
2013-07-05 08:00:00,58.0,43.0,-100.00,NNE,15,1.0,4.0,57,-99.99,,,0.00,377.829987,,2013-07-05 15:00:00,
2013-07-05 08:43:00,58.0,43.0,-100.00,NNE,15,1.0,4.0,57,-99.99,,,0.00,377.829987,,2013-07-05 15:43:00,
2013-07-05 08:53:00,58.0,43.0,-100.00,NNE,15,1.0,4.0,57,-99.99,,,0.00,377.829987,,2013-07-05 15:53:00,
2013-07-05 09:00:00,61.0,38.0,-100.00,NE,41,2.0,8.0,43,-99.99,,,0.00,565.880005,,2013-07-05 16:00:00,
2013-07-05 09:44:00,61.0,38.0,-100.00,NE,41,2.0,8.0,43,-99.99,,,0.00,565.880005,,2013-07-05 16:44:00,
2013-07-05 09:53:00,61.0,38.0,-100.00,NE,41,2.0,8.0,43,-99.99,,,0.00,565.880005,,2013-07-05 16:53:00,
2013-07-05 10:00:00,63.0,38.0,-100.00,North,2,2.0,7.0,39,-99.99,,,0.00,736.140015,,2013-07-05 17:00:00,
2013-07-05 10:43:00,63.0,38.0,-100.00,North,2,2.0,7.0,39,-99.99,,,0.00,736.140015,,2013-07-05 17:43:00,
2013-07-05 10:53:00,63.0,38.0,-100.00,North,2,2.0,7.0,39,-99.99,,,0.00,736.140015,,2013-07-05 17:53:00,
2013-07-05 11:00:00,67.0,38.0,-100.00,North,351,3.0,9.0,34,-99.99,,,0.00,875.830017,,2013-07-05 18:00:00,
2013-07-05 11:43:00,67.0,38.0,-100.00,North,351,3.0,9.0,34,-99.99,,,0.00,875.830017,,2013-07-05 18:43:00,
2013-07-05 11:53:00,67.0,38.0,-100.00,North,351,3.0,9.0,34,-99.99,,,0.00,875.830017,,2013-07-05 18:53:00,
2013-07-05 12:00:00,69.0,35.0,-100.00,NNE,22,3.0,9.0,28,-99.99,,,0.00,973.919983,,2013-07-05 19:00:00,
2013-07-05 12:42:00,69.0,35.0,-100.00,NNE,22,3.0,9.0,28,-99.99,,,0.00,973.919983,,2013-07-05 19:42:00,
2013-07-05 12:53:00,69.0,35.0,-100.00,NNE,22,3.0,9.0,28,-99.99,,,0.00,973.919983,,2013-07-05 19:53:00,
2013-07-05 13:00:00,71.0,35.0,-100.00,NNE,26,3.0,8.0,26,-99.99,,,0.00,1008.789978,,2013-07-05 20:00:00,
2013-07-05 13:43:00,71.0,35.0,-100.00,NNE,26,3.0,8.0,26,-99.99,,,0.00,1008.789978,,2013-07-05 20:43:00,
2013-07-05 13:53:00,71.0,35.0,-100.00,NNE,26,3.0,8.0,26,-99.99,,,0.00,1008.789978,,2013-07-05 20:53:00,
2013-07-05 14:00:00,74.0,38.0,-100.00,NNW,335,3.0,9.0,26,-99.99,,,0.00,993.679993,,2013-07-05 21:00:00,
2013-07-05 14:42:00,74.0,38.0,-100.00,NNW,335,3.0,9.0,26,-99.99,,,0.00,993.679993,,2013-07-05 21:42:00,
2013-07-05 14:53:00,74.0,38.0,-100.00,NNW,335,3.0,9.0,26,-99.99,,,0.00,993.679993,,2013-07-05 21:53:00,
2013-07-05 15:00:00,76.0,36.0,-100.00,NNW,342,3.0,11.0,23,-99.99,,,0.00,932.080017,,2013-07-05 22:00:00,
2013-07-05 15:43:00,76.0,36.0,-100.00,NNW,342,3.0,11.0,23,-99.99,,,0.00,932.080017,,2013-07-05 22:43:00,
2013-07-05 15:53:00,76.0,36.0,-100.00,NNW,342,3.0,11.0,23,-99.99,,,0.00,932.080017,,2013-07-05 22:53:00,
2013-07-05 16:00:00,78.0,36.0,-100.00,NNW,338,3.0,11.0,21,-99.99,,,0.00,819.700012,,2013-07-05 23:00:00,
2013-07-05 16:43:00,78.0,36.0,-100.00,NNW,338,3.0,11.0,21,-99.99,,,0.00,819.700012,,2013-07-05 23:43:00,
2013-07-05 16:53:00,78.0,36.0,-100.00,NNW,338,3.0,11.0,21,-99.99,,,0.00,819.700012,,2013-07-05 23:53:00,
2013-07-05 17:00:00,77.0,37.0,-100.00,NNW,346,4.0,11.0,23,-99.99,,,0.00,662.109985,,2013-07-06 00:00:00,
2013-07-05 17:42:00,77.0,37.0,-100.00,NNW,346,4.0,11.0,23,-99.99,,,0.00,662.109985,,2013-07-06 00:42:00,
2013-07-05 17:53:00,77.0,37.0,-100.00,NNW,346,4.0,11.0,23,-99.99,,,0.00,662.109985,,2013-07-06 00:53:00,
2013-07-05 18:00:00,76.0,36.0,-100.00,NNW,332,4.0,8.0,23,-99.99,,,0.00,484.399994,,2013-07-06 01:00:00,
2013-07-05 18:42:00,76.0,36.0,-100.00,NNW,332,4.0,8.0,23,-99.99,,,0.00,484.399994,,2013-07-06 01:42:00,
2013-07-05 18:53:00,76.0,36.0,-100.00,NNW,332,4.0,8.0,23,-99.99,,,0.00,484.399994,,2013-07-06 01:53:00,
2013-07-05 19:00:00,73.0,31.0,-100.00,North,0,5.0,14.0,21,-99.99,,,0.00,29.290001,,2013-07-06 02:00:00,
2013-07-05 19:43:00,73.0,31.0,-100.00,North,0,5.0,14.0,21,-99.99,,,0.00,29.290001,,2013-07-06 02:43:00,
2013-07-05 19:53:00,73.0,31.0,-100.00,North,0,5.0,14.0,21,-99.99,,,0.00,29.290001,,2013-07-06 02:53:00,
2013-07-05 20:00:00,69.0,32.0,-100.00,North,356,4.0,9.0,24,-99.99,,,0.00,19.760000,,2013-07-06 03:00:00,
2013-07-05 20:43:00,69.0,32.0,-100.00,North,356,4.0,9.0,24,-99.99,,,0.00,19.760000,,2013-07-06 03:43:00,
2013-07-05 20:53:00,69.0,32.0,-100.00,North,356,4.0,9.0,24,-99.99,,,0.00,19.760000,,2013-07-06 03:53:00,
2013-07-05 21:00:00,65.0,29.0,-100.00,North,1,3.0,7.0,25,-99.99,,,0.00,3.840000,,2013-07-06 04:00:00,
2013-07-05 21:43:00,65.0,29.0,-100.00,North,1,3.0,7.0,25,-99.99,,,0.00,3.840000,,2013-07-06 04:43:00,
2013-07-05 21:53:00,65.0,29.0,-100.00,North,1,3.0,7.0,25,-99.99,,,0.00,3.840000,,2013-07-06 04:53:00,
2013-07-05 22:00:00,63.0,29.0,-100.00,North,1,2.0,5.0,27,-99.99,,,0.00,0.000000,,2013-07-06 05:00:00,
2013-07-05 22:42:00,63.0,29.0,-100.00,North,1,2.0,5.0,27,-99.99,,,0.00,0.000000,,2013-07-06 05:42:00,
2013-07-05 22:53:00,63.0,29.0,-100.00,North,1,2.0,5.0,27,-99.99,,,0.00,0.000000,,2013-07-06 05:53:00,
2013-07-05 23:00:00,60.0,30.0,-100.00,North,4,2.0,6.0,32,-99.99,,,0.00,0.000000,,2013-07-06 06:00:00,
2013-07-05 23:43:00,60.0,30.0,-100.00,North,4,2.0,6.0,32,-99.99,,,0.00,0.000000,,2013-07-06 06:43:00,
2013-07-05 23:53:00,60.0,30.0,-100.00,North,4,2.0,6.0,32,-99.99,,,0.00,0.000000,,2013-07-06 06:53:00,